sensor_id;sensor_type;location;lat;lon;timestamp;temperature;humidity
20483;DHT22;10400;53.198;6.592;2022-10-16T00:00:56;13.20;99.90
20483;DHT22;10400;53.198;6.592;2022-10-16T00:03:22;13.20;99.90
20483;DHT22;10400;53.198;6.592;2022-10-16T00:05:48;13.20;99.90
20483;DHT22;10400;53.198;6.592;2022-10-16T00:08:14;13.20;99.90
20483;DHT22;10400;53.198;6.592;2022-10-16T00:10:40;13.20;99.90
20483;DHT22;10400;53.198;6.592;2022-10-16T00:13:06;13.20;99.90
20483;DHT22;10400;53.198;6.592;2022-10-16T00:15:36;13.20;99.90
20483;DHT22;10400;53.198;6.592;2022-10-16T00:18:03;13.20;99.90
20483;DHT22;10400;53.198;6.592;2022-10-16T00:20:29;13.10;99.90
20483;DHT22;10400;53.198;6.592;2022-10-16T00:22:56;13.10;99.90
20483;DHT22;10400;53.198;6.592;2022-10-16T00:25:22;13.10;99.90
20483;DHT22;10400;53.198;6.592;2022-10-16T00:27:48;13.10;99.90
20483;DHT22;10400;53.198;6.592;2022-10-16T00:30:14;13.10;99.90
20483;DHT22;10400;53.198;6.592;2022-10-16T00:32:39;13.20;99.90
20483;DHT22;10400;53.198;6.592;2022-10-16T00:35:05;13.10;99.90
20483;DHT22;10400;53.198;6.592;2022-10-16T00:37:31;13.10;99.90
20483;DHT22;10400;53.198;6.592;2022-10-16T00:39:56;13.20;99.90
20483;DHT22;10400;53.198;6.592;2022-10-16T00:42:22;13.20;99.90
20483;DHT22;10400;53.198;6.592;2022-10-16T00:44:55;13.20;99.90
20483;DHT22;10400;53.198;6.592;2022-10-16T00:47:37;13.20;99.90
20483;DHT22;10400;53.198;6.592;2022-10-16T00:50:11;13.20;99.90
20483;DHT22;10400;53.198;6.592;2022-10-16T00:52:40;13.10;99.90
20483;DHT22;10400;53.198;6.592;2022-10-16T00:55:08;13.20;99.90
20483;DHT22;10400;53.198;6.592;2022-10-16T00:57:35;13.10;99.90
20483;DHT22;10400;53.198;6.592;2022-10-16T01:00:02;13.10;99.90
20483;DHT22;10400;53.198;6.592;2022-10-16T01:02:28;13.10;99.90
20483;DHT22;10400;53.198;6.592;2022-10-16T01:04:54;13.10;99.90
20483;DHT22;10400;53.198;6.592;2022-10-16T01:10:39;13.20;99.90
20483;DHT22;10400;53.198;6.592;2022-10-16T01:13:18;13.10;99.90
20483;DHT22;10400;53.198;6.592;2022-10-16T01:15:56;13.10;99.90
20483;DHT22;10400;53.198;6.592;2022-10-16T01:18:39;13.10;99.90
20483;DHT22;10400;53.198;6.592;2022-10-16T01:21:10;13.10;99.90
20483;DHT22;10400;53.198;6.592;2022-10-16T01:24:03;13.10;99.90
20483;DHT22;10400;53.198;6.592;2022-10-16T01:29:03;13.10;99.90
20483;DHT22;10400;53.198;6.592;2022-10-16T01:31:35;13.20;99.90
20483;DHT22;10400;53.198;6.592;2022-10-16T01:34:09;13.20;99.90
20483;DHT22;10400;53.198;6.592;2022-10-16T01:36:41;13.10;99.90
20483;DHT22;10400;53.198;6.592;2022-10-16T01:39:10;13.20;99.90
20483;DHT22;10400;53.198;6.592;2022-10-16T01:41:46;13.20;99.90
20483;DHT22;10400;53.198;6.592;2022-10-16T01:44:19;13.10;99.90
20483;DHT22;10400;53.198;6.592;2022-10-16T01:46:48;13.10;99.90
20483;DHT22;10400;53.198;6.592;2022-10-16T01:49:16;13.20;99.90
20483;DHT22;10400;53.198;6.592;2022-10-16T01:51:45;13.10;99.90
20483;DHT22;10400;53.198;6.592;2022-10-16T01:54:14;13.20;99.90
20483;DHT22;10400;53.198;6.592;2022-10-16T01:56:41;13.20;99.90
20483;DHT22;10400;53.198;6.592;2022-10-16T01:59:13;13.20;99.90
20483;DHT22;10400;53.198;6.592;2022-10-16T02:01:44;13.30;99.90
20483;DHT22;10400;53.198;6.592;2022-10-16T02:04:51;13.20;99.90
20483;DHT22;10400;53.198;6.592;2022-10-16T02:07:18;13.30;99.90
20483;DHT22;10400;53.198;6.592;2022-10-16T02:09:44;13.20;99.90
20483;DHT22;10400;53.198;6.592;2022-10-16T02:12:26;13.30;99.90
20483;DHT22;10400;53.198;6.592;2022-10-16T02:14:53;13.30;99.90
20483;DHT22;10400;53.198;6.592;2022-10-16T02:17:20;13.30;99.90
20483;DHT22;10400;53.198;6.592;2022-10-16T02:19:48;13.30;99.90
20483;DHT22;10400;53.198;6.592;2022-10-16T02:22:42;13.40;99.90
20483;DHT22;10400;53.198;6.592;2022-10-16T02:25:24;13.40;99.90
20483;DHT22;10400;53.198;6.592;2022-10-16T02:28:00;13.40;99.90
20483;DHT22;10400;53.198;6.592;2022-10-16T02:30:33;13.40;99.90
20483;DHT22;10400;53.198;6.592;2022-10-16T02:33:01;13.40;99.90
20483;DHT22;10400;53.198;6.592;2022-10-16T02:35:28;13.40;99.90
20483;DHT22;10400;53.198;6.592;2022-10-16T02:37:55;13.40;99.90
20483;DHT22;10400;53.198;6.592;2022-10-16T02:40:22;13.40;99.90
20483;DHT22;10400;53.198;6.592;2022-10-16T02:42:50;13.40;99.90
20483;DHT22;10400;53.198;6.592;2022-10-16T02:45:17;13.40;99.90
20483;DHT22;10400;53.198;6.592;2022-10-16T02:47:43;13.40;99.90
20483;DHT22;10400;53.198;6.592;2022-10-16T02:50:09;13.40;99.90
20483;DHT22;10400;53.198;6.592;2022-10-16T02:52:35;13.40;99.90
20483;DHT22;10400;53.198;6.592;2022-10-16T02:55:00;13.40;99.90
20483;DHT22;10400;53.198;6.592;2022-10-16T02:57:26;13.40;99.90
20483;DHT22;10400;53.198;6.592;2022-10-16T02:59:52;13.40;99.90
20483;DHT22;10400;53.198;6.592;2022-10-16T03:02:17;13.40;99.90
20483;DHT22;10400;53.198;6.592;2022-10-16T03:04:43;13.40;99.90
20483;DHT22;10400;53.198;6.592;2022-10-16T03:07:09;13.40;99.90
20483;DHT22;10400;53.198;6.592;2022-10-16T03:09:34;13.40;99.90
20483;DHT22;10400;53.198;6.592;2022-10-16T03:12:00;13.50;99.90
20483;DHT22;10400;53.198;6.592;2022-10-16T03:14:26;13.50;99.90
20483;DHT22;10400;53.198;6.592;2022-10-16T03:16:51;13.50;99.90
20483;DHT22;10400;53.198;6.592;2022-10-16T03:19:17;13.50;99.90
20483;DHT22;10400;53.198;6.592;2022-10-16T03:21:44;13.50;99.90
20483;DHT22;10400;53.198;6.592;2022-10-16T03:24:09;13.50;99.90
20483;DHT22;10400;53.198;6.592;2022-10-16T03:26:35;13.50;99.90
20483;DHT22;10400;53.198;6.592;2022-10-16T03:29:01;13.50;99.90
20483;DHT22;10400;53.198;6.592;2022-10-16T03:31:31;13.50;99.90
20483;DHT22;10400;53.198;6.592;2022-10-16T03:33:57;13.50;99.90
20483;DHT22;10400;53.198;6.592;2022-10-16T03:36:22;13.50;99.90
20483;DHT22;10400;53.198;6.592;2022-10-16T03:38:48;13.50;99.90
20483;DHT22;10400;53.198;6.592;2022-10-16T03:41:14;13.50;99.90
20483;DHT22;10400;53.198;6.592;2022-10-16T03:43:39;13.50;99.90
20483;DHT22;10400;53.198;6.592;2022-10-16T03:46:05;13.50;99.90
20483;DHT22;10400;53.198;6.592;2022-10-16T03:48:31;13.50;99.90
20483;DHT22;10400;53.198;6.592;2022-10-16T03:50:57;13.40;99.90
20483;DHT22;10400;53.198;6.592;2022-10-16T03:53:23;13.40;99.90
20483;DHT22;10400;53.198;6.592;2022-10-16T03:55:49;13.40;99.90
20483;DHT22;10400;53.198;6.592;2022-10-16T03:58:14;13.40;99.90
20483;DHT22;10400;53.198;6.592;2022-10-16T04:00:42;13.40;99.90
20483;DHT22;10400;53.198;6.592;2022-10-16T04:03:07;13.40;99.90
20483;DHT22;10400;53.198;6.592;2022-10-16T04:05:34;13.40;99.90
20483;DHT22;10400;53.198;6.592;2022-10-16T04:07:59;13.30;99.90
20483;DHT22;10400;53.198;6.592;2022-10-16T04:10:25;13.30;99.90
20483;DHT22;10400;53.198;6.592;2022-10-16T04:12:51;13.30;99.90
20483;DHT22;10400;53.198;6.592;2022-10-16T04:15:16;13.30;99.90
20483;DHT22;10400;53.198;6.592;2022-10-16T04:17:42;13.30;99.90
20483;DHT22;10400;53.198;6.592;2022-10-16T04:20:08;13.20;99.90
20483;DHT22;10400;53.198;6.592;2022-10-16T04:22:34;13.20;99.90
20483;DHT22;10400;53.198;6.592;2022-10-16T04:24:59;13.20;99.90
20483;DHT22;10400;53.198;6.592;2022-10-16T04:27:25;13.20;99.90
20483;DHT22;10400;53.198;6.592;2022-10-16T04:29:50;13.10;99.90
20483;DHT22;10400;53.198;6.592;2022-10-16T04:32:16;13.10;99.90
20483;DHT22;10400;53.198;6.592;2022-10-16T04:34:42;13.20;99.90
20483;DHT22;10400;53.198;6.592;2022-10-16T04:37:07;13.20;99.90
20483;DHT22;10400;53.198;6.592;2022-10-16T04:39:33;13.10;99.90
20483;DHT22;10400;53.198;6.592;2022-10-16T04:41:58;13.20;99.90
20483;DHT22;10400;53.198;6.592;2022-10-16T04:44:24;13.20;99.90
20483;DHT22;10400;53.198;6.592;2022-10-16T04:46:50;13.10;99.90
20483;DHT22;10400;53.198;6.592;2022-10-16T04:49:16;13.20;99.90
20483;DHT22;10400;53.198;6.592;2022-10-16T04:51:42;13.20;99.90
20483;DHT22;10400;53.198;6.592;2022-10-16T04:54:09;13.20;99.90
20483;DHT22;10400;53.198;6.592;2022-10-16T04:56:35;13.20;99.90
20483;DHT22;10400;53.198;6.592;2022-10-16T04:59:08;13.20;99.90
20483;DHT22;10400;53.198;6.592;2022-10-16T05:01:34;13.30;99.90
20483;DHT22;10400;53.198;6.592;2022-10-16T05:03:59;13.30;99.90
20483;DHT22;10400;53.198;6.592;2022-10-16T05:06:25;13.40;99.90
20483;DHT22;10400;53.198;6.592;2022-10-16T05:08:50;13.40;99.90
20483;DHT22;10400;53.198;6.592;2022-10-16T05:11:16;13.30;99.90
20483;DHT22;10400;53.198;6.592;2022-10-16T05:13:42;13.30;99.90
20483;DHT22;10400;53.198;6.592;2022-10-16T05:16:07;13.30;99.90
20483;DHT22;10400;53.198;6.592;2022-10-16T05:18:33;13.30;99.90
20483;DHT22;10400;53.198;6.592;2022-10-16T05:20:58;13.30;99.90
20483;DHT22;10400;53.198;6.592;2022-10-16T05:23:24;13.30;99.90
20483;DHT22;10400;53.198;6.592;2022-10-16T05:25:57;13.30;99.90
20483;DHT22;10400;53.198;6.592;2022-10-16T05:28:28;13.30;99.90
20483;DHT22;10400;53.198;6.592;2022-10-16T05:30:54;13.30;99.90
20483;DHT22;10400;53.198;6.592;2022-10-16T05:33:21;13.30;99.90
20483;DHT22;10400;53.198;6.592;2022-10-16T05:35:46;13.30;99.90
20483;DHT22;10400;53.198;6.592;2022-10-16T05:38:12;13.20;99.90
20483;DHT22;10400;53.198;6.592;2022-10-16T05:40:38;13.20;99.90
20483;DHT22;10400;53.198;6.592;2022-10-16T05:43:04;13.20;99.90
20483;DHT22;10400;53.198;6.592;2022-10-16T05:45:29;13.20;99.90
20483;DHT22;10400;53.198;6.592;2022-10-16T05:47:55;13.20;99.90
20483;DHT22;10400;53.198;6.592;2022-10-16T05:50:20;13.20;99.90
20483;DHT22;10400;53.198;6.592;2022-10-16T05:52:46;13.20;99.90
20483;DHT22;10400;53.198;6.592;2022-10-16T05:55:12;13.20;99.90
20483;DHT22;10400;53.198;6.592;2022-10-16T05:57:37;13.20;99.90
20483;DHT22;10400;53.198;6.592;2022-10-16T06:00:04;13.20;99.90
20483;DHT22;10400;53.198;6.592;2022-10-16T06:02:30;13.20;99.90
20483;DHT22;10400;53.198;6.592;2022-10-16T06:04:56;13.30;99.90
20483;DHT22;10400;53.198;6.592;2022-10-16T06:07:22;13.20;99.90
20483;DHT22;10400;53.198;6.592;2022-10-16T06:09:49;13.30;99.90
20483;DHT22;10400;53.198;6.592;2022-10-16T06:12:15;13.20;99.90
20483;DHT22;10400;53.198;6.592;2022-10-16T06:14:41;13.20;99.90
20483;DHT22;10400;53.198;6.592;2022-10-16T06:17:07;13.20;99.90
20483;DHT22;10400;53.198;6.592;2022-10-16T06:19:32;13.20;99.90
20483;DHT22;10400;53.198;6.592;2022-10-16T06:21:58;13.30;99.90
20483;DHT22;10400;53.198;6.592;2022-10-16T06:24:24;13.30;99.90
20483;DHT22;10400;53.198;6.592;2022-10-16T06:26:50;13.30;99.90
20483;DHT22;10400;53.198;6.592;2022-10-16T06:29:16;13.30;99.90
20483;DHT22;10400;53.198;6.592;2022-10-16T06:31:41;13.30;99.90
20483;DHT22;10400;53.198;6.592;2022-10-16T06:34:09;13.40;99.90
20483;DHT22;10400;53.198;6.592;2022-10-16T06:36:37;13.40;99.90
20483;DHT22;10400;53.198;6.592;2022-10-16T06:39:03;13.40;99.90
20483;DHT22;10400;53.198;6.592;2022-10-16T06:41:30;13.40;99.90
20483;DHT22;10400;53.198;6.592;2022-10-16T06:43:55;13.50;99.90
20483;DHT22;10400;53.198;6.592;2022-10-16T06:46:23;13.50;99.90
20483;DHT22;10400;53.198;6.592;2022-10-16T06:48:49;13.50;99.90
20483;DHT22;10400;53.198;6.592;2022-10-16T06:51:17;13.50;99.90
20483;DHT22;10400;53.198;6.592;2022-10-16T06:53:46;13.50;99.90
20483;DHT22;10400;53.198;6.592;2022-10-16T06:56:16;13.60;99.90
20483;DHT22;10400;53.198;6.592;2022-10-16T06:58:42;13.60;99.90
20483;DHT22;10400;53.198;6.592;2022-10-16T07:01:09;13.60;99.90
20483;DHT22;10400;53.198;6.592;2022-10-16T07:03:39;13.70;99.90
20483;DHT22;10400;53.198;6.592;2022-10-16T07:06:07;13.70;99.90
20483;DHT22;10400;53.198;6.592;2022-10-16T07:08:35;13.70;99.90
20483;DHT22;10400;53.198;6.592;2022-10-16T07:11:02;13.70;99.90
20483;DHT22;10400;53.198;6.592;2022-10-16T07:13:29;13.80;99.90
20483;DHT22;10400;53.198;6.592;2022-10-16T07:15:54;13.70;99.90
20483;DHT22;10400;53.198;6.592;2022-10-16T07:18:20;13.70;99.90
20483;DHT22;10400;53.198;6.592;2022-10-16T07:20:47;13.70;99.90
20483;DHT22;10400;53.198;6.592;2022-10-16T07:23:12;13.70;99.90
20483;DHT22;10400;53.198;6.592;2022-10-16T07:25:38;13.70;99.90
20483;DHT22;10400;53.198;6.592;2022-10-16T07:28:04;13.70;99.90
20483;DHT22;10400;53.198;6.592;2022-10-16T07:30:29;13.70;99.90
20483;DHT22;10400;53.198;6.592;2022-10-16T07:32:55;13.70;99.90
20483;DHT22;10400;53.198;6.592;2022-10-16T07:35:20;13.70;99.90
20483;DHT22;10400;53.198;6.592;2022-10-16T07:37:46;13.70;99.90
20483;DHT22;10400;53.198;6.592;2022-10-16T07:40:12;13.70;99.90
20483;DHT22;10400;53.198;6.592;2022-10-16T07:42:38;13.70;99.90
20483;DHT22;10400;53.198;6.592;2022-10-16T07:45:04;13.70;99.90
20483;DHT22;10400;53.198;6.592;2022-10-16T07:47:29;13.80;99.90
20483;DHT22;10400;53.198;6.592;2022-10-16T07:49:55;13.80;99.90
20483;DHT22;10400;53.198;6.592;2022-10-16T07:52:20;13.80;99.90
20483;DHT22;10400;53.198;6.592;2022-10-16T07:54:46;13.80;99.90
20483;DHT22;10400;53.198;6.592;2022-10-16T07:57:12;13.90;99.90
20483;DHT22;10400;53.198;6.592;2022-10-16T07:59:44;13.90;99.90
20483;DHT22;10400;53.198;6.592;2022-10-16T08:02:09;13.90;99.90
20483;DHT22;10400;53.198;6.592;2022-10-16T08:04:35;13.90;99.90
20483;DHT22;10400;53.198;6.592;2022-10-16T08:07:00;13.90;99.90
20483;DHT22;10400;53.198;6.592;2022-10-16T08:09:26;14.00;99.90
20483;DHT22;10400;53.198;6.592;2022-10-16T08:11:52;14.00;99.90
20483;DHT22;10400;53.198;6.592;2022-10-16T08:14:18;14.00;99.90
20483;DHT22;10400;53.198;6.592;2022-10-16T08:16:43;14.10;99.90
20483;DHT22;10400;53.198;6.592;2022-10-16T08:19:09;14.10;99.90
20483;DHT22;10400;53.198;6.592;2022-10-16T08:21:34;14.20;99.90
20483;DHT22;10400;53.198;6.592;2022-10-16T08:24:00;14.30;99.90
20483;DHT22;10400;53.198;6.592;2022-10-16T08:26:26;14.30;99.90
20483;DHT22;10400;53.198;6.592;2022-10-16T08:28:52;14.30;99.90
20483;DHT22;10400;53.198;6.592;2022-10-16T08:31:18;14.30;99.90
20483;DHT22;10400;53.198;6.592;2022-10-16T08:33:46;14.30;99.90
20483;DHT22;10400;53.198;6.592;2022-10-16T08:36:13;14.40;99.90
20483;DHT22;10400;53.198;6.592;2022-10-16T08:38:39;14.50;99.90
20483;DHT22;10400;53.198;6.592;2022-10-16T08:41:33;14.70;99.90
20483;DHT22;10400;53.198;6.592;2022-10-16T08:47:23;14.80;99.90
20483;DHT22;10400;53.198;6.592;2022-10-16T08:50:09;14.90;99.90
20483;DHT22;10400;53.198;6.592;2022-10-16T08:52:39;15.00;99.90
20483;DHT22;10400;53.198;6.592;2022-10-16T08:55:05;15.00;99.90
20483;DHT22;10400;53.198;6.592;2022-10-16T08:57:31;15.00;99.90
20483;DHT22;10400;53.198;6.592;2022-10-16T09:00:12;15.10;99.90
20483;DHT22;10400;53.198;6.592;2022-10-16T09:10:57;15.60;99.90
20483;DHT22;10400;53.198;6.592;2022-10-16T09:16:33;15.50;99.90
20483;DHT22;10400;53.198;6.592;2022-10-16T09:21:31;15.40;99.90
20483;DHT22;10400;53.198;6.592;2022-10-16T09:24:18;15.50;99.90
20483;DHT22;10400;53.198;6.592;2022-10-16T09:26:44;15.60;99.90
20483;DHT22;10400;53.198;6.592;2022-10-16T09:29:19;15.60;99.90
20483;DHT22;10400;53.198;6.592;2022-10-16T09:31:51;15.60;99.90
20483;DHT22;10400;53.198;6.592;2022-10-16T09:36:52;15.80;99.90
20483;DHT22;10400;53.198;6.592;2022-10-16T09:39:17;15.90;99.90
20483;DHT22;10400;53.198;6.592;2022-10-16T09:41:44;15.90;99.90
20483;DHT22;10400;53.198;6.592;2022-10-16T09:46:48;15.80;99.90
20483;DHT22;10400;53.198;6.592;2022-10-16T09:49:24;15.80;99.90
20483;DHT22;10400;53.198;6.592;2022-10-16T09:51:51;15.90;99.90
20483;DHT22;10400;53.198;6.592;2022-10-16T09:54:27;16.00;99.90
20483;DHT22;10400;53.198;6.592;2022-10-16T09:57:04;16.00;99.90
20483;DHT22;10400;53.198;6.592;2022-10-16T09:59:31;16.00;99.90
20483;DHT22;10400;53.198;6.592;2022-10-16T10:02:01;16.00;99.90
20483;DHT22;10400;53.198;6.592;2022-10-16T10:04:38;16.00;99.90
20483;DHT22;10400;53.198;6.592;2022-10-16T10:07:04;15.90;99.90
20483;DHT22;10400;53.198;6.592;2022-10-16T10:09:42;16.00;99.90
20483;DHT22;10400;53.198;6.592;2022-10-16T10:12:24;16.00;99.90
20483;DHT22;10400;53.198;6.592;2022-10-16T10:14:55;16.10;99.90
20483;DHT22;10400;53.198;6.592;2022-10-16T10:17:25;16.00;99.90
20483;DHT22;10400;53.198;6.592;2022-10-16T10:19:52;16.10;99.90
20483;DHT22;10400;53.198;6.592;2022-10-16T10:22:23;16.20;99.90
20483;DHT22;10400;53.198;6.592;2022-10-16T10:27:37;16.40;99.90
20483;DHT22;10400;53.198;6.592;2022-10-16T10:38:39;16.40;99.90
20483;DHT22;10400;53.198;6.592;2022-10-16T10:43:50;16.60;99.90
20483;DHT22;10400;53.198;6.592;2022-10-16T10:46:41;16.70;99.90
20483;DHT22;10400;53.198;6.592;2022-10-16T10:54:48;16.60;99.90
20483;DHT22;10400;53.198;6.592;2022-10-16T11:00:42;16.60;99.90
20483;DHT22;10400;53.198;6.592;2022-10-16T11:08:27;16.60;99.90
20483;DHT22;10400;53.198;6.592;2022-10-16T11:11:02;16.70;99.90
20483;DHT22;10400;53.198;6.592;2022-10-16T11:15:58;17.10;99.90
20483;DHT22;10400;53.198;6.592;2022-10-16T11:18:39;17.10;99.90
20483;DHT22;10400;53.198;6.592;2022-10-16T11:21:10;17.10;99.90
20483;DHT22;10400;53.198;6.592;2022-10-16T11:23:59;17.00;99.90
20483;DHT22;10400;53.198;6.592;2022-10-16T11:26:30;16.80;99.90
20483;DHT22;10400;53.198;6.592;2022-10-16T11:28:59;16.90;99.90
20483;DHT22;10400;53.198;6.592;2022-10-16T11:31:46;17.00;99.90
20483;DHT22;10400;53.198;6.592;2022-10-16T11:34:35;17.00;99.90
20483;DHT22;10400;53.198;6.592;2022-10-16T11:39:39;17.10;99.90
20483;DHT22;10400;53.198;6.592;2022-10-16T11:42:16;17.10;99.90
20483;DHT22;10400;53.198;6.592;2022-10-16T11:45:03;17.20;99.90
20483;DHT22;10400;53.198;6.592;2022-10-16T11:50:23;17.20;99.90
20483;DHT22;10400;53.198;6.592;2022-10-16T11:55:46;17.30;99.90
20483;DHT22;10400;53.198;6.592;2022-10-16T12:06:13;17.30;99.90
20483;DHT22;10400;53.198;6.592;2022-10-16T12:08:43;17.40;99.90
20483;DHT22;10400;53.198;6.592;2022-10-16T12:11:24;17.40;99.90
20483;DHT22;10400;53.198;6.592;2022-10-16T12:14:59;17.60;99.90
20483;DHT22;10400;53.198;6.592;2022-10-16T12:16:58;17.40;99.90
20483;DHT22;10400;53.198;6.592;2022-10-16T12:19:27;17.20;99.90
20483;DHT22;10400;53.198;6.592;2022-10-16T12:21:56;17.10;99.90
20483;DHT22;10400;53.198;6.592;2022-10-16T12:24:37;16.90;99.90
20483;DHT22;10400;53.198;6.592;2022-10-16T12:27:06;16.70;99.90
20483;DHT22;10400;53.198;6.592;2022-10-16T12:29:42;16.70;99.90
20483;DHT22;10400;53.198;6.592;2022-10-16T12:32:32;16.60;99.90
20483;DHT22;10400;53.198;6.592;2022-10-16T12:35:00;16.50;99.90
20483;DHT22;10400;53.198;6.592;2022-10-16T12:37:31;16.50;99.90
20483;DHT22;10400;53.198;6.592;2022-10-16T12:39:58;16.40;99.90
20483;DHT22;10400;53.198;6.592;2022-10-16T12:44:54;16.40;99.90
20483;DHT22;10400;53.198;6.592;2022-10-16T12:49:58;16.30;99.90
20483;DHT22;10400;53.198;6.592;2022-10-16T12:54:59;16.30;99.90
20483;DHT22;10400;53.198;6.592;2022-10-16T13:03:19;16.50;99.90
20483;DHT22;10400;53.198;6.592;2022-10-16T13:06:03;16.60;99.90
20483;DHT22;10400;53.198;6.592;2022-10-16T13:14:50;16.80;99.90
20483;DHT22;10400;53.198;6.592;2022-10-16T13:20:12;16.90;99.90
20483;DHT22;10400;53.198;6.592;2022-10-16T13:23:13;17.00;99.90
20483;DHT22;10400;53.198;6.592;2022-10-16T13:25:54;17.10;99.90
20483;DHT22;10400;53.198;6.592;2022-10-16T13:28:29;17.10;99.90
20483;DHT22;10400;53.198;6.592;2022-10-16T13:30:58;17.20;99.90
20483;DHT22;10400;53.198;6.592;2022-10-16T13:35:56;17.20;99.90
20483;DHT22;10400;53.198;6.592;2022-10-16T13:38:26;17.20;99.90
20483;DHT22;10400;53.198;6.592;2022-10-16T13:41:17;17.10;99.90
20483;DHT22;10400;53.198;6.592;2022-10-16T13:43:49;16.90;99.90
20483;DHT22;10400;53.198;6.592;2022-10-16T13:46:23;16.70;99.90
20483;DHT22;10400;53.198;6.592;2022-10-16T13:49:00;16.70;99.90
20483;DHT22;10400;53.198;6.592;2022-10-16T13:51:27;16.80;99.90
20483;DHT22;10400;53.198;6.592;2022-10-16T13:53:55;16.80;99.90
20483;DHT22;10400;53.198;6.592;2022-10-16T13:56:24;16.90;99.90
20483;DHT22;10400;53.198;6.592;2022-10-16T13:59:02;16.90;99.90
20483;DHT22;10400;53.198;6.592;2022-10-16T14:01:31;17.10;99.90
20483;DHT22;10400;53.198;6.592;2022-10-16T14:04:09;17.10;99.90
20483;DHT22;10400;53.198;6.592;2022-10-16T14:06:36;17.10;99.90
20483;DHT22;10400;53.198;6.592;2022-10-16T14:09:14;17.20;99.90
20483;DHT22;10400;53.198;6.592;2022-10-16T14:11:54;17.30;99.90
20483;DHT22;10400;53.198;6.592;2022-10-16T14:14:20;17.30;99.90
20483;DHT22;10400;53.198;6.592;2022-10-16T14:16:47;17.30;99.90
20483;DHT22;10400;53.198;6.592;2022-10-16T14:19:22;17.30;99.90
20483;DHT22;10400;53.198;6.592;2022-10-16T14:21:50;17.30;99.90
20483;DHT22;10400;53.198;6.592;2022-10-16T14:24:35;17.30;99.90
20483;DHT22;10400;53.198;6.592;2022-10-16T14:27:01;17.30;99.90
20483;DHT22;10400;53.198;6.592;2022-10-16T14:29:29;17.10;99.90
20483;DHT22;10400;53.198;6.592;2022-10-16T14:31:58;17.00;99.90
20483;DHT22;10400;53.198;6.592;2022-10-16T14:34:34;16.90;99.90
20483;DHT22;10400;53.198;6.592;2022-10-16T14:37:18;16.80;99.90
20483;DHT22;10400;53.198;6.592;2022-10-16T14:39:51;16.80;99.90
20483;DHT22;10400;53.198;6.592;2022-10-16T14:42:20;16.80;99.90
20483;DHT22;10400;53.198;6.592;2022-10-16T14:44:49;16.80;99.90
20483;DHT22;10400;53.198;6.592;2022-10-16T14:47:19;16.70;99.90
20483;DHT22;10400;53.198;6.592;2022-10-16T14:49:51;16.60;99.90
20483;DHT22;10400;53.198;6.592;2022-10-16T14:52:17;16.60;99.90
20483;DHT22;10400;53.198;6.592;2022-10-16T14:54:43;16.60;99.90
20483;DHT22;10400;53.198;6.592;2022-10-16T14:57:27;16.60;99.90
20483;DHT22;10400;53.198;6.592;2022-10-16T14:59:53;16.60;99.90
20483;DHT22;10400;53.198;6.592;2022-10-16T15:02:29;16.50;99.90
20483;DHT22;10400;53.198;6.592;2022-10-16T15:04:55;16.50;99.90
20483;DHT22;10400;53.198;6.592;2022-10-16T15:07:22;16.40;99.90
20483;DHT22;10400;53.198;6.592;2022-10-16T15:09:47;16.50;99.90
20483;DHT22;10400;53.198;6.592;2022-10-16T15:12:13;16.50;99.90
20483;DHT22;10400;53.198;6.592;2022-10-16T15:14:39;16.40;99.90
20483;DHT22;10400;53.198;6.592;2022-10-16T15:17:05;16.40;99.90
20483;DHT22;10400;53.198;6.592;2022-10-16T15:19:30;16.30;99.90
20483;DHT22;10400;53.198;6.592;2022-10-16T15:21:56;16.30;99.90
20483;DHT22;10400;53.198;6.592;2022-10-16T15:24:22;16.20;99.90
20483;DHT22;10400;53.198;6.592;2022-10-16T15:26:48;16.20;99.90
20483;DHT22;10400;53.198;6.592;2022-10-16T15:29:15;16.30;99.90
20483;DHT22;10400;53.198;6.592;2022-10-16T15:31:41;16.30;99.90
20483;DHT22;10400;53.198;6.592;2022-10-16T15:34:10;16.20;99.90
20483;DHT22;10400;53.198;6.592;2022-10-16T15:36:37;16.20;99.90
20483;DHT22;10400;53.198;6.592;2022-10-16T15:39:04;16.20;99.90
20483;DHT22;10400;53.198;6.592;2022-10-16T15:41:30;16.20;99.90
20483;DHT22;10400;53.198;6.592;2022-10-16T15:43:56;16.10;99.90
20483;DHT22;10400;53.198;6.592;2022-10-16T15:46:24;16.10;99.90
20483;DHT22;10400;53.198;6.592;2022-10-16T15:48:51;16.00;99.90
20483;DHT22;10400;53.198;6.592;2022-10-16T15:51:21;15.90;99.90
20483;DHT22;10400;53.198;6.592;2022-10-16T15:53:46;16.00;99.90
20483;DHT22;10400;53.198;6.592;2022-10-16T15:56:13;15.90;99.90
20483;DHT22;10400;53.198;6.592;2022-10-16T15:58:40;15.80;99.90
20483;DHT22;10400;53.198;6.592;2022-10-16T16:01:06;15.80;99.90
20483;DHT22;10400;53.198;6.592;2022-10-16T16:03:34;15.70;99.90
20483;DHT22;10400;53.198;6.592;2022-10-16T16:06:05;15.60;99.90
20483;DHT22;10400;53.198;6.592;2022-10-16T16:08:33;15.60;99.90
20483;DHT22;10400;53.198;6.592;2022-10-16T16:11:07;15.50;99.90
20483;DHT22;10400;53.198;6.592;2022-10-16T16:13:33;15.40;99.90
20483;DHT22;10400;53.198;6.592;2022-10-16T16:15:59;15.40;99.90
20483;DHT22;10400;53.198;6.592;2022-10-16T16:18:25;15.30;99.90
20483;DHT22;10400;53.198;6.592;2022-10-16T16:20:51;15.30;99.90
20483;DHT22;10400;53.198;6.592;2022-10-16T16:23:17;15.20;99.90
20483;DHT22;10400;53.198;6.592;2022-10-16T16:25:44;15.20;99.90
20483;DHT22;10400;53.198;6.592;2022-10-16T16:28:10;15.10;99.90
20483;DHT22;10400;53.198;6.592;2022-10-16T16:30:39;15.10;99.90
20483;DHT22;10400;53.198;6.592;2022-10-16T16:33:05;15.00;99.90
20483;DHT22;10400;53.198;6.592;2022-10-16T16:35:30;15.00;99.90
20483;DHT22;10400;53.198;6.592;2022-10-16T16:37:56;14.90;99.90
20483;DHT22;10400;53.198;6.592;2022-10-16T16:40:22;14.90;99.90
20483;DHT22;10400;53.198;6.592;2022-10-16T16:42:48;14.80;99.90
20483;DHT22;10400;53.198;6.592;2022-10-16T16:45:14;14.70;99.90
20483;DHT22;10400;53.198;6.592;2022-10-16T16:47:40;14.70;99.90
20483;DHT22;10400;53.198;6.592;2022-10-16T16:50:06;14.60;99.90
20483;DHT22;10400;53.198;6.592;2022-10-16T16:52:34;14.60;99.90
20483;DHT22;10400;53.198;6.592;2022-10-16T16:55:00;14.50;99.90
20483;DHT22;10400;53.198;6.592;2022-10-16T16:57:26;14.40;99.90
20483;DHT22;10400;53.198;6.592;2022-10-16T16:59:51;14.40;99.90
20483;DHT22;10400;53.198;6.592;2022-10-16T17:02:17;14.30;99.90
20483;DHT22;10400;53.198;6.592;2022-10-16T17:04:43;14.20;99.90
20483;DHT22;10400;53.198;6.592;2022-10-16T17:07:08;14.20;99.90
20483;DHT22;10400;53.198;6.592;2022-10-16T17:09:34;14.20;99.90
20483;DHT22;10400;53.198;6.592;2022-10-16T17:12:00;14.10;99.90
20483;DHT22;10400;53.198;6.592;2022-10-16T17:14:25;14.10;99.90
20483;DHT22;10400;53.198;6.592;2022-10-16T17:16:52;14.00;99.90
20483;DHT22;10400;53.198;6.592;2022-10-16T17:19:18;13.90;99.90
20483;DHT22;10400;53.198;6.592;2022-10-16T17:21:46;13.90;99.90